Startpagina
METAR-TAF:

METAR-TAF

Vliegvelden :

Chengdu, China

Internationale luchthaven Chengdu Shuangliu

breedte: 30-40N, lengte: 104-01E, hoogte: 508 m

Actueel weer

Dit bericht is 56 minuten geleden gemaakt, om 12:00 UTC
Wind 4 kt uit het zuiden, variërend tussen het zuidoosten en het westzuidwesten
Temperatuur 10°C
Vochtigheid 66%
Druk 1028 hPa
Zicht 10 km of meer
geen wolken onder 1500 m en geen cumulonimbus

METAR: ZUUU 221200Z 19002MPS 140V240 CAVOK 10/04 Q1028 NOSIG

Tijdstip: 20:56 (12:56 UTC)

Verwachting

Dit bericht is 4 uur en het 49 minuten geleden gemaakt, om 08:07 UTC
Verwachting geldig van 22 om 12 UTC tot 23 om 12 UTC
Wind 6 kt uit het noordnoordoosten
Zicht: 5000 m
Verspreide wolken op 5000 ft
nevel

TAF: ZUUU 220807Z 2212/2312 02003MPS 5000 BR SCT050 TX12/2307Z TN07/2223Z

Waarnemingen en weersverwachtingen van meer dan 4000 vliegvelden (METAR en TAF).

De beschikbare stations zijn de gele en rode punten op de kaart.

Ga met uw muis naar het station om de naam te zien.

Klik dan om waarnemingen en weersverwachtingen te zien.

kaart wijzigen: klik op de groene knoppen met een zwart kruis om in te zoomen, op de groene knop met een streepje om uit te zoomen of op de groene pijlen voor aangrenzende kaarten.


METAR-TAF: